Time;durP1;ratioP1;P1;durP2;ratioP2;P2;SDS_P1;SDS_P2;PMS_P1;PMS_P2;Temp;Humidity;BMP_temperature;BMP_pressure;BME280_temperature;BME280_humidity;BME280_pressure;Samples;Min_cycle;Max_cycle;Signal;HPM_P1;HPM_P2
2022/07/09 00:02:04;;;;;;;3.15;1.80;;;15.80;76.70;;;14.86;59.49;98450.34;5051384;28;20400;-76
2022/07/09 00:04:30;;;;;;;5.10;2.10;;;15.70;76.70;;;14.82;59.66;98451.09;5052029;28;20484;-76
2022/07/09 00:06:56;;;;;;;4.90;1.73;;;15.80;77.00;;;14.80;59.94;98451.38;5051343;28;20962;-74
2022/07/09 00:09:23;;;;;;;5.93;1.95;;;15.70;77.30;;;14.88;59.70;98450.91;5050743;28;20398;-76
2022/07/09 00:11:50;;;;;;;6.27;1.80;;;15.80;77.30;;;14.80;59.89;98458.56;5051093;28;20508;-75
2022/07/09 00:14:16;;;;;;;5.53;2.17;;;15.70;77.30;;;14.83;59.58;98453.50;5051202;28;20394;-75
2022/07/09 00:16:41;;;;;;;4.20;2.00;;;15.80;77.40;;;14.78;59.82;98447.31;5051449;28;20405;-76
2022/07/09 00:19:07;;;;;;;4.95;2.05;;;15.60;77.50;;;14.69;59.99;98442.44;5050620;28;20500;-76
2022/07/09 00:21:33;;;;;;;5.13;2.22;;;15.60;77.80;;;14.75;60.09;98445.97;5051126;28;20397;-76
2022/07/09 00:24:00;;;;;;;4.97;1.95;;;15.60;78.00;;;14.77;59.89;98438.53;5051142;28;20393;-74
2022/07/09 00:26:27;;;;;;;5.28;2.22;;;15.70;78.00;;;14.73;60.35;98437.44;5051145;28;20416;-76
2022/07/09 00:28:53;;;;;;;4.97;2.10;;;15.60;78.00;;;14.66;60.15;98437.59;5050460;28;20409;-74
2022/07/09 00:31:19;;;;;;;3.23;1.90;;;15.60;78.40;;;14.57;60.39;98436.47;5050840;28;20439;-75
2022/07/09 00:33:44;;;;;;;5.77;2.00;;;15.40;78.60;;;14.49;60.93;98436.09;5050865;28;20981;-75
2022/07/09 00:36:10;;;;;;;4.88;2.03;;;15.30;79.20;;;14.49;61.35;98431.59;5050878;28;20504;-75
2022/07/09 00:38:36;;;;;;;6.10;1.95;;;15.40;79.60;;;14.50;61.10;98427.88;5050460;28;20436;-75
2022/07/09 00:41:02;;;;;;;5.68;2.13;;;15.40;79.60;;;14.45;61.34;98427.00;5032859;28;20445;-75
2022/07/09 00:43:30;;;;;;;4.13;2.17;;;15.40;79.80;;;14.44;61.81;98426.19;5050727;28;20397;-74
2022/07/09 00:45:56;;;;;;;4.78;1.90;;;15.30;80.40;;;14.46;61.71;98423.28;5050832;28;20397;-75
2022/07/09 00:48:23;;;;;;;5.22;2.10;;;15.40;80.60;;;14.42;61.56;98411.53;5050241;28;20409;-75
2022/07/09 00:50:49;;;;;;;4.20;1.90;;;15.30;80.60;;;14.40;61.96;98416.28;5050425;28;20977;-74
2022/07/09 00:53:19;;;;;;;4.45;2.00;;;15.30;80.80;;;14.32;61.97;98417.50;5050574;28;20504;-74
2022/07/09 00:55:47;;;;;;;3.55;1.95;;;15.20;81.00;;;14.28;62.01;98413.75;5050577;28;20397;-74
2022/07/09 00:58:16;;;;;;;6.13;2.00;;;15.20;81.30;;;14.25;62.62;98403.59;5050023;28;20413;-74
2022/07/09 01:00:44;;;;;;;7.35;2.30;;;15.10;81.70;;;14.29;62.25;98405.47;5050302;28;20928;-74
2022/07/09 01:03:10;;;;;;;5.25;2.17;;;15.20;81.90;;;14.25;62.49;98398.25;5050421;28;20404;-74
2022/07/09 01:05:36;;;;;;;6.38;2.13;;;15.20;82.00;;;14.23;62.96;98403.03;5050433;28;20394;-74
2022/07/09 01:08:03;;;;;;;3.85;2.05;;;15.10;83.20;;;14.18;63.08;98395.78;5049985;28;20420;-74
2022/07/09 01:10:30;;;;;;;7.15;2.50;;;15.10;82.80;;;14.21;63.18;98394.47;5050469;28;20444;-74
2022/07/09 01:12:56;;;;;;;7.13;2.33;;;15.10;83.30;;;14.17;63.23;98398.69;5050135;28;20413;-74
2022/07/09 01:15:22;;;;;;;5.93;2.20;;;15.00;83.50;;;14.06;63.65;98392.44;5050150;28;20539;-74
2022/07/09 01:17:51;;;;;;;5.85;2.22;;;15.00;83.90;;;14.03;63.89;98397.47;5050308;28;20406;-74
2022/07/09 01:20:23;;;;;;;3.97;2.05;;;15.00;84.60;;;14.00;63.79;98395.28;5049209;28;20406;-74
2022/07/09 01:22:49;;;;;;;3.30;1.95;;;14.90;84.60;;;13.94;64.01;98394.44;5050027;28;20397;-75
2022/07/09 01:25:18;;;;;;;3.97;1.83;;;14.90;85.00;;;14.08;63.82;98394.84;5050051;28;20484;-75
2022/07/09 01:27:44;;;;;;;6.13;2.22;;;15.00;85.00;;;13.99;63.97;98388.34;5050058;28;20410;-75
2022/07/09 01:30:11;;;;;;;17.77;2.55;;;14.90;85.10;;;13.96;64.25;98395.00;5049248;28;20397;-75
2022/07/09 01:32:37;;;;;;;4.00;2.00;;;14.90;85.40;;;13.98;64.18;98384.91;5049904;28;20413;-75
2022/07/09 01:35:04;;;;;;;3.63;1.80;;;14.90;85.50;;;13.91;64.43;98389.59;5049813;28;20447;-75
2022/07/09 01:37:31;;;;;;;5.22;2.33;;;14.80;85.80;;;13.85;64.57;98386.06;5049997;28;20543;-75
2022/07/09 01:39:57;;;;;;;5.80;2.38;;;14.80;86.20;;;13.90;64.46;98383.50;5049422;28;20397;-75
2022/07/09 01:42:23;;;;;;;3.65;1.92;;;14.70;86.30;;;13.89;64.67;98383.72;5049644;28;20492;-75
2022/07/09 01:44:49;;;;;;;3.75;1.90;;;14.80;86.70;;;13.83;64.68;98388.16;5049691;28;20436;-75
2022/07/09 01:47:15;;;;;;;3.25;1.90;;;14.80;86.90;;;13.75;64.75;98385.16;5049820;28;20488;-75
2022/07/09 01:49:41;;;;;;;7.07;2.00;;;14.70;87.30;;;13.82;64.89;98383.09;5049289;28;20401;-75
2022/07/09 01:52:08;;;;;;;8.65;2.38;;;14.70;87.40;;;13.73;65.04;98381.94;5049535;28;20414;-75
2022/07/09 01:54:36;;;;;;;6.25;2.30;;;14.70;87.60;;;13.74;65.32;98378.22;5049687;28;20767;-75
2022/07/09 01:57:02;;;;;;;6.28;2.20;;;14.60;87.90;;;13.69;65.12;98376.28;5049729;28;20783;-75
2022/07/09 01:59:28;;;;;;;6.03;2.15;;;14.60;88.00;;;13.62;65.61;98382.81;5049172;28;20463;-75
2022/07/09 02:01:54;;;;;;;5.40;2.00;;;14.50;88.60;;;13.65;65.45;98374.38;5049594;28;20398;-75
2022/07/09 02:04:20;;;;;;;4.70;2.30;;;14.60;88.80;;;13.56;65.80;98366.00;5049533;28;20398;-75
2022/07/09 02:06:46;;;;;;;5.53;2.30;;;14.50;89.00;;;13.52;65.90;98371.03;5049670;28;20953;-75
2022/07/09 02:09:12;;;;;;;3.75;1.98;;;14.50;89.10;;;13.52;65.51;98365.69;5048883;28;20488;-74
2022/07/09 02:11:39;;;;;;;3.58;2.15;;;14.50;89.10;;;13.53;65.52;98366.50;5031512;28;20516;-75
2022/07/09 02:14:05;;;;;;;4.63;1.88;;;14.50;88.90;;;13.58;65.51;98355.94;5049430;28;20472;-75
2022/07/09 02:16:31;;;;;;;3.13;1.90;;;14.50;89.00;;;13.61;65.27;98360.75;5049531;28;20414;-74
2022/07/09 02:18:57;;;;;;;4.15;1.70;;;14.60;89.10;;;13.55;65.64;98370.50;5031083;28;20420;-75
2022/07/09 02:21:23;;;;;;;5.13;2.22;;;14.50;89.30;;;13.53;65.60;98364.63;5049444;28;20961;-75
2022/07/09 02:23:48;;;;;;;6.30;2.00;;;14.50;89.40;;;13.48;65.88;98367.22;5049447;28;20949;-75
2022/07/09 02:26:15;;;;;;;4.45;2.13;;;14.40;89.70;;;13.45;66.11;98365.06;5031624;28;20424;-75
2022/07/09 02:28:42;;;;;;;5.03;1.90;;;14.40;90.10;;;13.44;66.00;98358.16;5048918;28;20404;-75
2022/07/09 02:31:08;;;;;;;7.32;2.35;;;14.40;90.10;;;13.44;65.94;98362.66;5049272;28;20914;-74
2022/07/09 02:33:34;;;;;;;5.68;2.30;;;14.40;90.10;;;13.47;65.83;98354.97;5050406;28;20577;-74
2022/07/09 02:36:00;;;;;;;4.43;2.00;;;14.40;90.20;;;13.45;66.00;98357.09;5053350;28;20416;-75
2022/07/09 02:38:26;;;;;;;6.80;2.27;;;14.40;90.20;;;13.33;66.28;98359.03;5034896;28;20453;-75
2022/07/09 02:40:52;;;;;;;5.97;2.30;;;14.30;90.40;;;13.28;66.34;98361.63;5052812;28;20405;-74
2022/07/09 02:43:18;;;;;;;4.15;2.10;;;14.20;90.60;;;13.27;66.50;98354.69;5053061;28;20393;-75
2022/07/09 02:45:45;;;;;;;4.30;2.10;;;14.20;90.60;;;13.33;66.31;98353.72;5035109;28;20475;-74
2022/07/09 02:48:11;;;;;;;4.93;2.22;;;14.20;90.60;;;13.26;66.38;98355.75;5052507;28;20397;-75
2022/07/09 02:50:37;;;;;;;4.05;2.17;;;14.20;90.50;;;13.24;66.30;98354.38;5052726;28;20407;-75
2022/07/09 02:53:03;;;;;;;7.80;2.60;;;14.10;90.80;;;13.17;66.88;98357.19;5052876;28;20435;-75
2022/07/09 02:55:28;;;;;;;6.90;2.10;;;14.10;90.90;;;13.14;66.87;98358.50;5052912;28;20413;-75
2022/07/09 02:57:54;;;;;;;13.03;2.80;;;14.10;91.00;;;13.20;66.67;98364.72;5052907;28;20409;-74
2022/07/09 03:00:20;;;;;;;5.05;2.30;;;14.20;90.90;;;13.27;66.23;98369.84;5052117;28;20393;-75
2022/07/09 03:02:47;;;;;;;5.60;2.55;;;14.20;90.80;;;13.26;66.04;98363.72;5052871;28;20467;-75
2022/07/09 03:05:13;;;;;;;4.33;2.27;;;14.20;90.70;;;13.15;66.21;98365.44;5052674;28;20435;-75
2022/07/09 03:07:39;;;;;;;3.33;2.05;;;14.10;90.70;;;13.10;66.33;98357.34;5052780;28;20398;-75
2022/07/09 03:10:06;;;;;;;5.07;2.40;;;14.00;90.90;;;13.16;66.57;98364.38;5051761;28;20458;-74
2022/07/09 03:12:32;;;;;;;5.82;2.40;;;14.00;91.00;;;13.08;66.72;98359.44;5052684;28;20420;-74
2022/07/09 03:14:58;;;;;;;6.43;2.60;;;14.00;91.10;;;13.04;66.51;98360.97;5052397;28;20402;-75
2022/07/09 03:17:26;;;;;;;3.72;2.25;;;14.00;91.20;;;13.00;66.87;98359.06;5052618;28;20454;-75
2022/07/09 03:19:54;;;;;;;8.40;2.78;;;13.90;91.30;;;13.00;66.87;98361.72;5051869;28;20496;-74
2022/07/09 03:22:19;;;;;;;5.95;2.47;;;13.90;91.50;;;13.06;66.93;98360.75;5052271;28;20407;-75
2022/07/09 03:24:45;;;;;;;5.13;2.65;;;14.00;91.40;;;13.00;67.03;98365.19;5052220;28;20546;-75
2022/07/09 03:27:11;;;;;;;4.30;3.00;;;13.90;91.40;;;12.96;67.06;98366.69;5052333;28;20492;-75
2022/07/09 03:29:37;;;;;;;7.10;2.60;;;13.90;91.60;;;12.90;67.54;98367.66;5051693;28;20397;-74
2022/07/09 03:32:04;;;;;;;6.37;2.50;;;13.80;91.90;;;12.85;67.75;98361.47;5052105;28;20821;-74
2022/07/09 03:34:30;;;;;;;4.63;2.58;;;13.80;92.20;;;12.84;67.98;98362.53;5084415;22;20487;-80
2022/07/09 03:36:58;;;;;;;3.78;2.35;;;13.80;92.30;;;12.87;68.04;98367.34;5092426;28;20974;-77
2022/07/09 03:39:25;;;;;;;6.60;2.83;;;13.80;92.30;;;12.93;67.95;98364.50;5091755;28;20895;-77
2022/07/09 03:41:51;;;;;;;5.05;2.65;;;13.90;92.40;;;12.97;67.88;98370.16;5092018;28;20744;-78
2022/07/09 03:44:17;;;;;;;5.57;2.70;;;13.90;92.50;;;12.94;67.70;98367.97;5091631;28;20496;-79
2022/07/09 03:46:43;;;;;;;4.75;2.38;;;13.90;92.40;;;12.89;68.09;98370.56;5092441;28;20390;-77
2022/07/09 03:49:10;;;;;;;5.57;2.60;;;13.80;92.70;;;12.94;67.95;98371.44;5091398;28;20394;-78
2022/07/09 03:51:37;;;;;;;5.75;2.70;;;13.90;92.80;;;12.88;68.09;98369.75;5091792;28;20398;-77
2022/07/09 03:54:04;;;;;;;4.90;2.53;;;13.80;92.90;;;12.84;68.63;98365.97;5091954;28;20397;-80
2022/07/09 03:56:30;;;;;;;6.65;2.80;;;13.80;93.20;;;12.87;68.56;98367.34;5091879;28;20420;-77
2022/07/09 03:58:56;;;;;;;6.82;2.70;;;13.80;93.40;;;12.93;68.62;98361.84;5091258;28;20406;-79
2022/07/09 04:01:22;;;;;;;5.00;2.50;;;13.80;93.40;;;12.94;68.51;98368.78;5091809;28;20398;-77
2022/07/09 04:03:48;;;;;;;6.90;2.53;;;13.90;93.30;;;12.90;68.75;98364.22;5091668;28;20451;-77
2022/07/09 04:06:14;;;;;;;6.70;2.77;;;13.80;93.50;;;12.97;68.54;98363.00;5091754;28;20470;-77
2022/07/09 04:08:40;;;;;;;5.05;2.63;;;13.90;93.60;;;12.94;68.82;98375.94;5091156;28;20959;-77
2022/07/09 04:11:07;;;;;;;5.43;2.90;;;13.80;93.70;;;13.00;69.02;98370.50;5090105;28;20776;-80
2022/07/09 04:13:33;;;;;;;6.35;2.63;;;13.90;93.90;;;13.00;68.82;98375.00;5091409;28;20409;-78
2022/07/09 04:15:59;;;;;;;4.82;2.40;;;13.90;93.90;;;12.96;69.10;98376.53;5091634;28;20482;-79
2022/07/09 04:18:25;;;;;;;5.88;2.50;;;13.90;94.00;;;13.01;69.01;98379.25;5091103;28;20493;-79
2022/07/09 04:20:51;;;;;;;6.55;2.70;;;13.90;94.30;;;12.99;69.23;98373.41;5091144;28;20455;-77
2022/07/09 04:23:17;;;;;;;6.47;2.97;;;13.90;94.40;;;13.00;69.26;98378.47;5091367;28;20489;-77
2022/07/09 04:25:43;;;;;;;4.93;2.37;;;13.90;94.60;;;13.02;69.41;98376.34;5091746;28;20398;-77
2022/07/09 04:28:10;;;;;;;4.57;2.55;;;13.90;94.60;;;13.10;69.62;98380.47;5090800;28;20406;-79
2022/07/09 04:30:36;;;;;;;4.65;2.45;;;14.00;95.00;;;13.12;69.65;98384.50;5090937;28;20456;-77
2022/07/09 04:33:02;;;;;;;5.43;2.40;;;14.00;95.00;;;13.12;69.74;98389.81;5091242;28;20509;-78
2022/07/09 04:35:28;;;;;;;5.82;2.70;;;14.00;95.20;;;13.15;70.39;98391.22;5090877;28;20402;-77
2022/07/09 04:37:53;;;;;;;6.97;2.50;;;14.00;95.50;;;13.17;69.92;98389.91;5091293;28;20398;-79
2022/07/09 04:40:19;;;;;;;5.53;2.55;;;14.10;95.50;;;13.18;69.83;98391.53;5090273;28;20996;-79
2022/07/09 04:42:45;;;;;;;6.45;2.72;;;14.10;95.60;;;13.16;69.63;98390.16;5091175;28;20473;-79
2022/07/09 04:45:12;;;;;;;3.40;2.10;;;14.00;95.60;;;13.18;69.91;98385.41;5090829;28;20386;-80
2022/07/09 04:47:38;;;;;;;4.95;2.50;;;14.10;95.80;;;13.23;70.37;98384.69;5091106;28;20481;-79
2022/07/09 04:50:05;;;;;;;7.47;3.00;;;14.10;96.20;;;13.28;70.11;98387.41;5090208;28;20474;-79
2022/07/09 04:52:31;;;;;;;8.30;2.42;;;14.20;96.20;;;13.27;69.85;98386.59;5090794;28;20908;-77
2022/07/09 04:54:57;;;;;;;3.85;2.33;;;14.10;96.10;;;13.32;70.15;98391.19;5090615;28;20411;-76
2022/07/09 04:57:23;;;;;;;6.47;2.70;;;14.20;96.30;;;13.35;70.19;98390.72;5089170;28;20469;-80
2022/07/09 04:59:49;;;;;;;3.42;2.38;;;14.20;96.50;;;13.38;70.40;98390.22;5073735;28;20453;-78
2022/07/09 05:02:16;;;;;;;5.07;2.40;;;14.20;96.60;;;13.42;70.36;98389.50;5079667;28;20437;-78
2022/07/09 05:04:42;;;;;;;5.93;2.47;;;14.30;96.90;;;13.49;70.62;98381.34;5082217;28;20404;-78
2022/07/09 05:07:08;;;;;;;3.97;2.55;;;14.30;97.10;;;13.59;70.59;98384.16;5080456;28;20762;-78
2022/07/09 05:09:34;;;;;;;4.85;2.22;;;14.40;97.40;;;13.69;70.95;98386.91;5078047;28;20405;-80
2022/07/09 05:12:00;;;;;;;5.65;2.45;;;14.50;97.90;;;13.81;71.25;98373.50;5077929;28;20420;-78
2022/07/09 05:14:26;;;;;;;4.77;2.40;;;14.60;98.00;;;13.91;71.11;98376.28;5081501;28;20832;-80
2022/07/09 05:16:52;;;;;;;3.70;2.25;;;14.80;98.10;;;14.03;70.70;98379.63;5079019;28;20746;-78
2022/07/09 05:19:19;;;;;;;4.45;2.25;;;14.90;97.90;;;14.16;70.20;98373.91;5082845;28;20405;-78
2022/07/09 05:21:45;;;;;;;5.43;2.53;;;15.00;97.40;;;14.28;69.73;98376.47;5085700;28;20492;-77
2022/07/09 05:24:11;;;;;;;4.82;2.13;;;15.10;96.90;;;14.41;68.99;98376.09;5083464;28;20521;-78
2022/07/09 05:26:37;;;;;;;5.32;2.13;;;15.20;96.30;;;14.53;68.16;98368.75;5072539;28;20765;-77
2022/07/09 05:29:03;;;;;;;3.60;2.33;;;15.30;95.60;;;14.65;67.63;98373.94;5086311;28;20400;-77
2022/07/09 05:31:29;;;;;;;4.18;2.38;;;15.50;95.10;;;14.78;67.32;98372.69;5082756;28;20926;-77
2022/07/09 05:33:55;;;;;;;4.93;2.40;;;15.60;94.70;;;14.87;67.21;98366.66;5081328;28;20459;-77
2022/07/09 05:36:23;;;;;;;5.88;2.22;;;15.70;94.40;;;14.96;66.82;98369.66;5086081;28;20394;-79
2022/07/09 05:38:49;;;;;;;4.30;2.20;;;15.70;94.10;;;15.03;66.57;98370.25;5073449;28;20724;-78
2022/07/09 05:41:15;;;;;;;4.70;2.10;;;15.80;93.80;;;15.12;65.92;98374.03;5081479;28;20454;-78
2022/07/09 05:43:41;;;;;;;4.22;2.10;;;15.90;93.40;;;15.20;65.76;98376.22;5081330;28;20394;-78
2022/07/09 05:46:07;;;;;;;4.07;2.28;;;16.00;93.00;;;15.30;64.98;98370.97;5074491;28;20407;-78
2022/07/09 05:48:33;;;;;;;4.90;2.08;;;16.10;92.40;;;15.38;65.26;98377.69;5085611;28;20943;-78
2022/07/09 05:50:59;;;;;;;5.30;2.70;;;16.10;92.50;;;15.45;65.05;98386.25;5075118;28;20402;-77
2022/07/09 05:53:26;;;;;;;6.75;2.70;;;16.20;92.20;;;15.53;64.84;98387.63;5089280;28;20464;-79
2022/07/09 05:55:52;;;;;;;6.32;2.70;;;16.30;92.00;;;15.58;64.17;98390.34;5076745;28;20399;-79
2022/07/09 05:58:18;;;;;;;5.53;2.50;;;16.30;91.50;;;15.63;64.08;98390.41;5085562;28;20406;-79
2022/07/09 06:00:44;;;;;;;6.28;2.60;;;16.40;91.40;;;15.66;63.82;98392.53;5073050;28;20843;-78
2022/07/09 06:03:12;;;;;;;7.47;2.63;;;16.40;91.10;;;15.68;63.78;98391.22;5096947;28;20415;-79
2022/07/09 06:05:38;;;;;;;5.15;2.40;;;16.50;91.00;;;15.70;63.86;98394.44;5076325;28;20405;-78
2022/07/09 06:08:04;;;;;;;6.18;2.88;;;16.50;91.00;;;15.71;64.08;98390.69;5086659;28;20437;-80
2022/07/09 06:10:32;;;;;;;6.32;2.60;;;16.50;91.10;;;15.74;64.06;98392.84;5081203;28;20406;-80
2022/07/09 06:12:58;;;;;;;7.28;2.70;;;16.50;91.00;;;15.77;63.61;98389.69;5075087;28;20419;-80
2022/07/09 06:15:23;;;;;;;6.32;2.70;;;16.50;90.80;;;15.81;62.75;98388.09;5078427;28;20443;-80
2022/07/09 06:17:50;;;;;;;4.37;2.13;;;16.60;90.10;;;15.86;62.30;98372.09;5081412;28;20402;-79
2022/07/09 06:20:16;;;;;;;4.93;2.35;;;16.60;89.50;;;15.90;62.56;98376.91;5077109;28;20438;-80
2022/07/09 06:22:42;;;;;;;5.45;2.05;;;16.60;89.30;;;15.94;62.60;98376.13;5079397;28;20404;-79
2022/07/09 06:25:09;;;;;;;4.05;2.10;;;16.70;89.50;;;16.01;62.53;98383.91;5087333;28;20430;-80
2022/07/09 06:27:36;;;;;;;4.72;2.05;;;16.70;89.10;;;16.05;62.23;98379.66;5079438;28;20410;-80
2022/07/09 06:30:04;;;;;;;3.85;2.10;;;16.80;89.00;;;16.09;61.95;98378.84;5082470;28;20484;-79
2022/07/09 06:32:30;;;;;;;2.63;1.73;;;16.80;88.60;;;16.15;62.12;98382.34;5077079;28;20689;-81
2022/07/09 06:34:56;;;;;;;3.08;1.90;;;16.80;88.20;;;16.18;62.00;98379.94;5083110;28;20500;-81
2022/07/09 06:37:22;;;;;;;3.50;1.95;;;16.90;88.30;;;16.24;62.02;98378.91;5082291;28;20423;-80
2022/07/09 06:39:49;;;;;;;4.35;1.95;;;16.90;88.20;;;16.29;62.06;98375.44;5085835;28;20603;-81
2022/07/09 06:42:17;;;;;;;4.65;2.17;;;17.00;88.00;;;16.33;61.82;98381.84;5084792;28;20407;-81
2022/07/09 06:44:45;;;;;;;4.25;1.92;;;17.00;87.80;;;16.34;61.94;98382.66;5092892;28;20447;-81
2022/07/09 06:47:11;;;;;;;3.83;1.83;;;17.10;87.90;;;16.38;61.80;98381.91;5094075;28;20402;-81
2022/07/09 06:49:37;;;;;;;3.15;1.80;;;17.10;87.80;;;16.39;61.90;98377.34;5088334;28;20418;-81
2022/07/09 06:52:05;;;;;;;3.60;1.98;;;17.10;87.60;;;16.43;61.64;98378.41;5082273;28;20416;-81
2022/07/09 06:54:31;;;;;;;4.63;1.87;;;17.10;87.70;;;16.46;61.87;98377.91;5072953;28;20403;-82
2022/07/09 06:56:57;;;;;;;3.45;1.92;;;17.10;87.60;;;16.53;61.89;98373.09;5072799;28;20391;-82
2022/07/09 06:59:23;;;;;;;2.80;1.58;;;17.20;88.50;;;16.64;61.70;98378.22;5072149;28;20399;-83
2022/07/09 07:01:51;;;;;;;3.28;1.85;;;17.30;87.70;;;16.79;60.66;98373.94;5072639;28;20404;-82
2022/07/09 07:04:17;;;;;;;4.65;2.05;;;17.40;86.40;;;16.93;60.24;98373.16;5072576;28;20403;-80
2022/07/09 07:06:43;;;;;;;5.22;2.05;;;17.60;85.80;;;17.08;59.80;98367.00;5072945;28;20765;-80
2022/07/09 07:09:09;;;;;;;4.13;2.00;;;17.70;84.70;;;17.24;60.21;98365.09;5072488;28;21172;-81
2022/07/09 07:11:35;;;;;;;3.45;1.90;;;17.80;85.20;;;17.33;59.89;98369.66;5072616;28;20400;-80
2022/07/09 07:14:01;;;;;;;3.10;1.63;;;18.00;84.40;;;17.47;59.51;98369.88;5072346;28;20465;-81
2022/07/09 07:16:27;;;;;;;2.53;1.70;;;18.10;84.20;;;17.57;59.18;98374.41;5072670;28;20888;-81
2022/07/09 07:18:54;;;;;;;4.55;1.67;;;18.20;83.50;;;17.69;59.46;98373.06;5071066;28;20395;-81
2022/07/09 07:21:20;;;;;;;3.50;1.75;;;18.30;83.70;;;17.80;58.96;98376.53;5074594;28;20920;-81
2022/07/09 07:23:46;;;;;;;3.70;1.80;;;18.40;82.90;;;17.90;59.11;98372.97;5092230;28;20427;-82
2022/07/09 07:26:12;;;;;;;2.85;1.63;;;18.50;83.10;;;17.95;58.86;98372.97;5092860;28;20417;-81
2022/07/09 07:28:38;;;;;;;5.40;1.65;;;18.60;82.70;;;18.01;57.47;98369.19;5091933;28;20398;-81
2022/07/09 07:31:04;;;;;;;3.55;1.70;;;18.60;80.60;;;17.98;57.08;98359.81;5092687;28;20474;-78
2022/07/09 07:33:30;;;;;;;4.38;1.75;;;18.60;79.80;;;18.06;56.71;98371.84;5091522;28;20414;-80
2022/07/09 07:35:57;;;;;;;4.28;1.80;;;18.70;79.30;;;18.05;56.96;98371.03;5091451;28;20401;-80
2022/07/09 07:38:27;;;;;;;4.17;1.90;;;18.70;79.00;;;18.10;56.68;98368.38;5091827;28;20405;-81
2022/07/09 07:40:53;;;;;;;6.05;1.90;;;18.70;78.80;;;18.10;55.98;98364.88;5091170;28;20402;-80
2022/07/09 07:43:19;;;;;;;5.18;1.70;;;18.70;77.80;;;18.13;56.04;98367.00;5091390;28;20455;-81
2022/07/09 07:45:45;;;;;;;3.55;1.58;;;18.80;77.80;;;18.18;56.22;98373.16;5091766;28;20397;-80
2022/07/09 07:48:10;;;;;;;3.70;1.60;;;18.80;78.00;;;18.27;56.16;98370.66;5091485;28;20424;-81
2022/07/09 07:50:38;;;;;;;2.65;1.40;;;18.90;78.70;;;18.30;56.39;98370.13;5091159;28;20398;-81
2022/07/09 07:53:06;;;;;;;2.75;1.60;;;18.90;77.90;;;18.36;56.46;98368.22;5092102;28;20406;-82
2022/07/09 07:55:32;;;;;;;3.08;1.40;;;19.00;78.10;;;18.40;56.50;98371.97;5090238;28;20938;-82
2022/07/09 07:57:58;;;;;;;3.38;1.50;;;19.00;78.10;;;18.43;56.29;98371.38;5087060;28;20410;-81
2022/07/09 08:00:24;;;;;;;4.07;1.50;;;19.00;78.00;;;18.45;56.53;98370.03;5084657;28;20394;-80
2022/07/09 08:02:50;;;;;;;7.63;1.53;;;19.00;78.10;;;18.48;56.47;98369.50;5072830;28;20498;-80
2022/07/09 08:05:16;;;;;;;4.20;1.50;;;19.10;78.10;;;18.55;56.53;98367.28;5069581;28;20896;-80
2022/07/09 08:07:42;;;;;;;3.85;1.52;;;19.10;78.00;;;18.63;55.96;98365.13;5078827;28;20417;-80
2022/07/09 08:10:13;;;;;;;6.38;1.40;;;19.20;77.70;;;18.74;54.32;98364.78;5076735;28;20436;-81
2022/07/09 08:12:39;;;;;;;1.90;1.20;;;19.30;75.60;;;18.82;54.88;98368.75;5067603;28;20423;-80
2022/07/09 08:15:06;;;;;;;1.87;1.10;;;19.40;75.70;;;18.88;55.22;98360.38;5069936;28;20506;-81
2022/07/09 08:17:32;;;;;;;2.03;1.00;;;19.50;76.10;;;18.97;55.13;98373.19;5082518;28;20432;-80
2022/07/09 08:19:58;;;;;;;1.60;0.97;;;19.50;75.90;;;19.04;55.27;98366.41;5091015;28;20406;-80
2022/07/09 08:22:24;;;;;;;1.07;0.83;;;19.60;76.00;;;19.15;55.37;98364.44;5091345;28;20483;-81
2022/07/09 08:24:50;;;;;;;4.43;1.07;;;19.70;76.10;;;19.25;53.80;98362.44;5091257;28;20438;-81
2022/07/09 08:27:17;;;;;;;2.70;1.10;;;19.80;74.50;;;19.36;53.68;98351.63;5091458;28;20404;-81
2022/07/09 08:29:43;;;;;;;2.47;1.02;;;19.90;74.10;;;19.47;53.72;98353.94;5090527;28;20398;-81
2022/07/09 08:32:09;;;;;;;4.05;1.58;;;20.00;74.00;;;19.55;53.11;98349.81;5090162;28;20491;-81
2022/07/09 08:34:35;;;;;;;2.35;1.30;;;20.10;73.10;;;19.64;53.00;98346.25;5090844;28;20406;-80
2022/07/09 08:37:01;;;;;;;5.65;1.40;;;20.20;72.90;;;19.76;51.90;98342.38;5106921;28;20424;-81
2022/07/09 08:39:27;;;;;;;3.97;1.70;;;20.30;71.30;;;19.91;51.85;98345.66;5090607;28;20398;-81
2022/07/09 08:41:53;;;;;;;4.25;1.40;;;20.40;71.40;;;20.06;52.02;98342.78;5090957;28;20978;-80
2022/07/09 08:44:23;;;;;;;3.95;1.50;;;20.60;71.60;;;20.20;52.14;98332.09;5090914;28;20492;-78
2022/07/09 08:46:49;;;;;;;3.15;1.13;;;20.70;71.50;;;20.38;52.04;98339.41;5090969;28;20410;-79
2022/07/09 08:49:16;;;;;;;2.95;1.25;;;20.90;71.40;;;20.54;51.14;98333.78;5090187;28;20817;-80
2022/07/09 08:51:43;;;;;;;4.20;1.30;;;21.00;70.30;;;20.63;50.96;98329.34;5090639;28;20792;-80
2022/07/09 08:54:10;;;;;;;2.83;1.10;;;21.10;69.70;;;20.70;51.17;98330.56;5090690;28;20976;-81
2022/07/09 08:56:36;;;;;;;2.10;1.20;;;21.20;70.10;;;20.83;51.23;98334.41;5090820;28;20756;-81
2022/07/09 08:59:02;;;;;;;4.75;1.35;;;21.30;70.20;;;20.94;50.66;98335.84;5090324;28;20405;-81
2022/07/09 09:01:29;;;;;;;2.60;1.30;;;21.40;69.30;;;20.95;50.33;98332.06;5090804;28;20767;-81
2022/07/09 09:03:55;;;;;;;3.47;1.30;;;21.50;68.90;;;20.82;50.47;98327.44;5090577;28;20525;-82
2022/07/09 09:06:25;;;;;;;3.50;1.50;;;21.40;68.70;;;20.61;50.71;98321.56;5090813;28;20962;-80
2022/07/09 09:08:57;;;;;;;3.95;1.40;;;21.20;68.90;;;20.44;48.42;98324.00;5089939;28;20948;-81
2022/07/09 09:11:25;;;;;;;3.60;1.20;;;21.00;67.00;;;20.31;48.68;98316.63;5090520;28;20451;-80
2022/07/09 09:13:52;;;;;;;3.58;1.48;;;21.00;65.90;;;20.18;48.15;98314.66;5090267;28;20410;-80
2022/07/09 09:16:19;;;;;;;3.33;1.25;;;20.80;65.10;;;20.02;49.50;98314.88;5090560;28;20432;-81
2022/07/09 09:18:48;;;;;;;2.58;1.20;;;20.60;66.70;;;19.99;50.22;98311.97;5081598;28;20502;-80
2022/07/09 09:21:18;;;;;;;3.85;1.40;;;20.50;67.80;;;19.96;49.84;98313.34;5069968;28;20503;-81
2022/07/09 09:23:47;;;;;;;5.22;1.42;;;20.60;67.60;;;19.95;49.37;98319.00;5070056;28;20392;-81
2022/07/09 09:26:15;;;;;;;4.35;1.55;;;20.60;66.80;;;20.10;49.01;98305.34;5070120;28;20399;-81
2022/07/09 09:28:49;;;;;;;4.50;1.20;;;20.60;67.40;;;20.28;48.47;98309.16;5069529;28;20479;-81
2022/07/09 09:31:25;;;;;;;4.05;1.50;;;20.80;65.80;;;20.38;47.44;98304.44;5068582;28;20751;-82
2022/07/09 09:36:32;;;;;;;3.65;1.38;;;20.90;64.80;;;20.48;48.02;98295.41;5027595;28;20935;-74
2022/07/09 09:39:13;;;;;;;4.78;1.58;;;21.00;65.00;;;20.57;45.85;98301.75;5029472;28;20399;-74
2022/07/09 09:41:40;;;;;;;3.58;1.30;;;21.20;62.50;;;20.75;46.08;98300.13;5029285;28;20954;-75
2022/07/09 09:44:10;;;;;;;3.72;1.42;;;21.30;62.30;;;20.82;45.17;98289.78;5028939;28;20793;-76
2022/07/09 09:46:37;;;;;;;4.97;1.70;;;21.30;60.90;;;20.97;44.37;98291.41;5029865;28;20399;-74
2022/07/09 09:49:07;;;;;;;3.38;1.42;;;21.50;60.20;;;21.11;44.44;98287.63;5029256;28;20403;-75
2022/07/09 09:51:37;;;;;;;1.30;1.00;;;21.60;60.10;;;21.29;44.90;98287.84;5029567;28;20415;-75
2022/07/09 09:54:05;;;;;;;2.70;1.38;;;21.80;60.90;;;21.65;43.81;98296.88;5028909;28;21606;-74
2022/07/09 09:56:33;;;;;;;2.72;1.42;;;22.00;60.00;;;21.87;42.95;98286.16;5029822;28;20406;-75
2022/07/09 09:59:00;;;;;;;1.35;0.80;;;22.30;58.60;;;22.15;44.57;98284.22;5029235;28;20402;-76
2022/07/09 10:01:28;;;;;;;3.28;1.35;;;22.60;60.00;;;22.32;42.96;98287.06;5029643;28;20434;-76
2022/07/09 10:03:55;;;;;;;3.88;1.50;;;22.80;58.50;;;22.29;41.89;98286.88;5029570;28;20403;-75
2022/07/09 10:06:21;;;;;;;2.70;0.90;;;22.80;58.00;;;22.19;42.76;98279.81;5029808;28;20417;-75
2022/07/09 10:08:48;;;;;;;2.63;1.05;;;22.70;58.00;;;22.02;41.75;98279.66;5028120;28;20418;-75
2022/07/09 10:11:14;;;;;;;3.35;1.05;;;22.50;56.80;;;21.85;41.74;98279.47;5040899;28;20879;-76
2022/07/09 10:13:51;;;;;;;2.60;1.20;;;22.40;56.80;;;21.55;42.50;98279.00;5038369;28;20498;-75
2022/07/09 10:16:17;;;;;;;3.73;1.23;;;22.20;57.40;;;21.40;42.70;98276.63;5037002;28;20393;-75
2022/07/09 10:18:51;;;;;;;3.13;1.40;;;22.00;57.50;;;21.32;42.97;98276.50;5037113;28;20455;-75
2022/07/09 10:21:17;;;;;;;1.38;0.82;;;21.90;57.80;;;21.40;43.88;98276.63;5021749;28;20463;-74